Time;durP1;ratioP1;P1;durP2;ratioP2;P2;SDS_P1;SDS_P2;PMS_P1;PMS_P2;Temp;Humidity;BMP_temperature;BMP_pressure;BME280_temperature;BME280_humidity;BME280_pressure;Samples;Min_cycle;Max_cycle;Signal;HPM_P1;HPM_P2
2023/05/25 00:02:17;;;;;;;16.13;5.68;;;;;;;7.27;100.00;102415.38;4975887;28;20045;-92
2023/05/25 00:04:47;;;;;;;15.93;5.27;;;;;;;7.28;100.00;102423.16;4974227;28;20042;-93
2023/05/25 00:07:13;;;;;;;21.27;5.90;;;;;;;7.28;100.00;102417.03;4974830;28;20027;-91
2023/05/25 00:09:40;;;;;;;13.20;5.25;;;;;;;7.27;100.00;102420.72;4992843;28;20023;-92
2023/05/25 00:12:06;;;;;;;16.10;5.35;;;;;;;7.22;100.00;102426.59;4982186;28;20041;-92
2023/05/25 00:14:32;;;;;;;19.23;5.60;;;;;;;7.19;100.00;102415.53;4973165;28;20167;-92
2023/05/25 00:16:57;;;;;;;15.15;5.70;;;;;;;7.21;100.00;102418.81;4992954;28;20084;-91
2023/05/25 00:19:23;;;;;;;15.07;6.10;;;;;;;7.24;100.00;102431.75;4993322;28;20065;-92
2023/05/25 00:21:49;;;;;;;16.52;5.80;;;;;;;7.19;100.00;102421.69;4995849;28;20030;-91
2023/05/25 00:24:15;;;;;;;13.85;5.13;;;;;;;7.25;100.00;102428.06;4994424;28;20034;-92
2023/05/25 00:26:40;;;;;;;18.97;5.43;;;;;;;7.22;100.00;102423.13;4991258;28;20034;-92
2023/05/25 00:29:06;;;;;;;18.57;5.70;;;;;;;7.19;100.00;102423.50;4961763;28;20035;-93
2023/05/25 00:31:32;;;;;;;14.85;5.40;;;;;;;7.13;100.00;102406.47;4962047;28;20031;-92
2023/05/25 00:33:58;;;;;;;19.67;6.10;;;;;;;7.16;100.00;102410.56;4973133;28;20447;-93
2023/05/25 00:36:24;;;;;;;12.50;5.17;;;;;;;7.18;100.00;102414.72;4974142;28;20317;-92
2023/05/25 00:38:50;;;;;;;13.00;5.10;;;;;;;7.09;100.00;102424.69;4974884;28;20027;-92
2023/05/25 00:41:18;;;;;;;17.97;5.63;;;;;;;7.09;100.00;102429.19;4994322;28;20041;-91
2023/05/25 00:43:45;;;;;;;15.25;4.88;;;;;;;7.13;100.00;102443.78;4994010;28;20513;-92
2023/05/25 00:46:13;;;;;;;17.00;5.80;;;;;;;7.13;100.00;102436.59;4973444;28;20069;-91
2023/05/25 00:48:39;;;;;;;15.88;5.50;;;;;;;7.13;100.00;102436.59;4974393;28;20027;-91
2023/05/25 00:51:05;;;;;;;13.38;4.82;;;;;;;7.08;100.00;102428.38;4972646;28;20030;-92
2023/05/25 00:53:32;;;;;;;18.50;5.27;;;;;;;7.12;100.00;102434.16;4955788;28;20045;-92
2023/05/25 00:56:31;;;;;;;18.88;4.78;;;;;;;7.10;100.00;102438.84;4989866;28;20487;-91
2023/05/25 00:59:02;;;;;;;13.52;4.80;;;;;;;7.01;100.00;102429.38;4965230;28;20062;-92
2023/05/25 01:01:32;;;;;;;11.65;5.20;;;;;;;7.09;100.00;102431.84;4994339;28;20133;-91
2023/05/25 01:04:00;;;;;;;22.88;5.28;;;;;;;7.03;100.00;102438.81;4994484;28;20022;-91
2023/05/25 01:06:29;;;;;;;16.38;5.55;;;;;;;7.02;100.00;102437.16;4991673;28;20058;-92
2023/05/25 01:09:00;;;;;;;16.67;4.97;;;;;;;6.99;100.00;102439.38;4990849;28;20033;-93
2023/05/25 01:11:31;;;;;;;10.70;4.80;;;;;;;6.92;100.00;102431.34;4977329;28;20295;-92
2023/05/25 01:13:57;;;;;;;14.25;4.60;;;;;;;6.94;100.00;102434.63;4972361;28;20548;-92
2023/05/25 01:16:24;;;;;;;9.82;4.13;;;;;;;6.97;100.00;102439.56;4973214;28;20031;-91
2023/05/25 01:18:51;;;;;;;13.77;4.82;;;;;;;6.86;100.00;102432.09;4973656;28;20034;-91
2023/05/25 01:21:41;;;;;;;16.77;5.28;;;;;;;6.87;100.00;102442.56;4971413;28;20031;-92
2023/05/25 01:24:12;;;;;;;13.80;4.65;;;;;;;6.91;100.00;102437.69;4972551;28;20479;-92
2023/05/25 01:26:45;;;;;;;16.98;5.13;;;;;;;6.89;100.00;102451.19;4969990;28;20031;-92
2023/05/25 01:29:12;;;;;;;13.68;4.78;;;;;;;6.86;100.00;102451.56;4973633;28;20030;-93
2023/05/25 01:31:38;;;;;;;10.82;4.45;;;;;;;6.79;100.00;102456.84;4971252;28;20041;-92
2023/05/25 01:34:04;;;;;;;13.73;4.87;;;;;;;6.74;100.00;102461.13;4974048;28;20125;-92
2023/05/25 01:36:30;;;;;;;12.67;4.47;;;;;;;6.72;100.00;102453.31;4977063;28;20379;-92
2023/05/25 01:38:56;;;;;;;14.60;4.82;;;;;;;6.68;100.00;102454.72;4973811;28;20026;-90
2023/05/25 01:41:21;;;;;;;14.65;4.63;;;;;;;6.70;100.00;102458.00;4973079;28;20029;-91
2023/05/25 01:43:47;;;;;;;15.20;5.00;;;;;;;6.69;100.00;102458.19;4972199;28;20047;-91
2023/05/25 01:46:15;;;;;;;14.60;4.63;;;;;;;6.72;100.00;102463.97;4973476;28;20038;-91
2023/05/25 01:49:08;;;;;;;14.07;4.50;;;;;;;6.62;100.00;102456.31;4973290;28;20386;-92
2023/05/25 01:51:55;;;;;;;15.88;4.13;;;;;;;6.61;100.00;102464.47;4963606;28;20034;-94
2023/05/25 01:54:24;;;;;;;11.30;4.10;;;;;;;6.62;100.00;102463.47;4972605;28;20089;-94
2023/05/25 01:56:51;;;;;;;13.85;4.45;;;;;;;6.62;100.00;102474.97;4979802;28;20114;-93
2023/05/25 01:59:20;;;;;;;10.75;4.47;;;;;;;6.58;100.00;102473.69;4990983;28;20057;-93
2023/05/25 02:01:46;;;;;;;9.30;4.20;;;;;;;6.53;100.00;102470.75;4954789;28;20118;-94
2023/05/25 02:04:13;;;;;;;10.82;4.20;;;;;;;6.45;100.00;102469.03;4969007;28;20101;-92
2023/05/25 02:06:38;;;;;;;11.17;4.60;;;;;;;6.30;100.00;102453.13;4974933;28;20027;-95
2023/05/25 02:09:04;;;;;;;17.00;5.20;;;;;;;6.36;100.00;102472.84;4973149;28;20344;-95
2023/05/25 02:11:29;;;;;;;10.80;4.50;;;;;;;6.34;100.00;102466.91;4971493;28;20063;-95
2023/05/25 02:13:55;;;;;;;9.27;4.17;;;;;;;6.32;100.00;102474.25;4971250;28;20030;-95
2023/05/25 02:16:20;;;;;;;12.53;4.17;;;;;;;6.21;100.00;102460.41;4957909;28;20027;-94
2023/05/25 02:18:45;;;;;;;9.57;4.50;;;;;;;6.19;100.00;102453.63;4976062;28;20460;-95
2023/05/25 02:21:11;;;;;;;7.07;4.07;;;;;;;6.15;100.00;102458.50;4974063;28;20030;-94
2023/05/25 02:23:36;;;;;;;10.83;4.10;;;;;;;6.13;100.00;102457.88;4974907;28;20085;-94
2023/05/25 02:26:02;;;;;;;11.02;4.30;;;;;;;6.10;100.00;102455.56;4974764;28;20110;-94
2023/05/25 02:28:27;;;;;;;10.33;4.47;;;;;;;6.08;100.00;102460.25;4973709;28;20117;-94
2023/05/25 02:30:52;;;;;;;14.83;4.77;;;;;;;6.05;100.00;102461.47;4974628;28;20114;-94
2023/05/25 02:33:18;;;;;;;9.80;4.40;;;;;;;6.04;100.00;102467.78;4971849;28;20042;-94
2023/05/25 02:35:43;;;;;;;11.83;4.63;;;;;;;6.04;100.00;102458.97;4974888;28;20042;-95
2023/05/25 02:38:08;;;;;;;11.60;4.73;;;;;;;6.01;100.00;102454.84;4978717;28;20351;-95
2023/05/25 02:40:34;;;;;;;8.53;4.43;;;;;;;6.04;100.00;102464.28;4998091;28;20026;-95
2023/05/25 02:42:59;;;;;;;8.23;4.53;;;;;;;5.93;100.00;102448.78;5000926;28;20019;-96
2023/05/25 02:45:25;;;;;;;11.53;4.43;;;;;;;5.90;100.00;102458.78;4985375;28;20038;-95
2023/05/25 02:47:50;;;;;;;11.23;4.18;;;;;;;5.82;100.00;102447.44;4969863;28;20066;-94
2023/05/25 02:50:15;;;;;;;11.63;4.57;;;;;;;5.81;100.00;102451.09;4971206;28;20050;-94
2023/05/25 02:52:41;;;;;;;11.70;4.80;;;;;;;5.79;100.00;102466.41;4995306;28;20291;-95
2023/05/25 02:55:12;;;;;;;8.43;4.27;;;;;;;5.75;100.00;102466.78;4996738;28;20050;-94
2023/05/25 02:57:37;;;;;;;7.33;4.47;;;;;;;5.71;100.00;102470.84;4996803;28;20314;-95
2023/05/25 03:00:05;;;;;;;10.93;4.47;;;;;;;5.58;100.00;102455.53;4997176;28;20007;-94
2023/05/25 03:02:31;;;;;;;10.73;4.75;;;;;;;5.53;100.00;102452.59;4995559;28;20019;-95
2023/05/25 03:04:57;;;;;;;11.48;4.57;;;;;;;5.57;100.00;102456.53;4969901;28;20028;-94
2023/05/25 03:07:25;;;;;;;11.53;4.40;;;;;;;5.51;100.00;102461.78;4968286;28;20029;-94
2023/05/25 03:09:50;;;;;;;12.73;4.60;;;;;;;5.54;100.00;102467.53;4971644;28;20510;-96
2023/05/25 03:12:16;;;;;;;14.30;4.50;;;;;;;5.51;100.00;102464.44;4968141;28;20041;-95
2023/05/25 03:14:41;;;;;;;12.47;4.80;;;;;;;5.49;100.00;102467.25;4980329;28;20050;-94
2023/05/25 03:17:06;;;;;;;11.67;4.67;;;;;;;5.42;100.00;102469.81;4972080;28;20078;-94
2023/05/25 03:19:32;;;;;;;12.03;4.43;;;;;;;5.36;100.00;102473.22;4973026;28;20282;-95
2023/05/25 03:21:57;;;;;;;8.70;4.30;;;;;;;5.38;100.00;102473.03;4962439;28;20027;-94
2023/05/25 03:24:23;;;;;;;12.87;4.80;;;;;;;5.30;100.00;102476.59;4955162;28;20045;-95
2023/05/25 03:26:48;;;;;;;12.93;5.18;;;;;;;5.38;100.00;102483.66;4975645;28;20036;-95
2023/05/25 03:29:13;;;;;;;10.47;4.77;;;;;;;5.42;100.00;102488.44;4992766;28;20105;-96
2023/05/25 03:31:40;;;;;;;15.37;4.70;;;;;;;5.43;100.00;102487.44;4993084;28;20505;-96
2023/05/25 03:34:05;;;;;;;16.45;5.60;;;;;;;5.44;100.00;102493.59;4974211;28;20026;-96
2023/05/25 03:36:32;;;;;;;8.75;5.18;;;;;;;5.43;100.00;102506.03;4975582;28;20100;-96
2023/05/25 03:38:57;;;;;;;16.53;5.57;;;;;;;5.52;100.00;102500.66;4978361;28;20019;-96
2023/05/25 03:41:23;;;;;;;18.23;6.97;;;;;;;5.53;100.00;102494.31;4976120;28;20029;-96
2023/05/25 03:43:51;;;;;;;16.27;6.90;;;;;;;5.64;100.00;102501.03;4959668;28;20131;-96
2023/05/25 03:46:16;;;;;;;13.80;6.65;;;;;;;5.63;100.00;102497.53;4976585;28;20039;-95
2023/05/25 03:48:42;;;;;;;20.27;6.80;;;;;;;5.68;100.00;102500.47;4954198;28;20031;-96
2023/05/25 03:51:07;;;;;;;17.90;7.47;;;;;;;5.68;100.00;102500.47;4953792;29;20051;-95
2023/05/25 03:53:32;;;;;;;17.63;6.97;;;;;;;5.76;100.00;102515.50;4971175;28;20110;-94
2023/05/25 03:55:58;;;;;;;21.63;9.77;;;;;;;5.76;100.00;102499.53;4970774;28;20038;-95
2023/05/25 03:58:23;;;;;;;19.90;8.97;;;;;;;5.84;100.00;102511.94;4971414;28;20569;-95
2023/05/25 04:00:49;;;;;;;18.63;9.38;;;;;;;5.88;100.00;102513.22;4972252;28;20390;-95
2023/05/25 04:03:14;;;;;;;23.07;9.77;;;;;;;5.94;100.00;102508.97;4963573;28;20042;-94
2023/05/25 04:05:40;;;;;;;21.83;9.25;;;;;;;6.00;100.00;102516.25;4954654;29;20495;-95
2023/05/25 04:08:07;;;;;;;18.67;9.27;;;;;;;6.09;100.00;102509.00;4968838;28;20475;-95
2023/05/25 04:10:32;;;;;;;19.00;9.20;;;;;;;6.19;100.00;102515.69;4957201;29;20374;-96
2023/05/25 04:12:58;;;;;;;20.55;9.45;;;;;;;6.33;100.00;102508.66;4975305;28;20474;-96
2023/05/25 04:15:24;;;;;;;16.50;8.60;;;;;;;6.59;100.00;102525.94;4968256;28;20026;-95
2023/05/25 04:17:49;;;;;;;23.60;9.13;;;;;;;6.65;100.00;102529.69;4974233;28;20019;-96
2023/05/25 04:20:15;;;;;;;19.97;8.70;;;;;;;6.63;100.00;102527.22;5001600;28;20033;-95
2023/05/25 04:22:40;;;;;;;18.55;9.23;;;;;;;6.62;100.00;102525.56;5000612;28;20025;-96
2023/05/25 04:25:07;;;;;;;18.57;9.27;;;;;;;6.58;100.00;102524.28;4982504;28;20023;-92
2023/05/25 04:27:32;;;;;;;19.42;9.43;;;;;;;6.62;100.00;102524.72;5079855;23;20030;-96
2023/05/25 04:29:57;;;;;;;19.90;9.27;;;;;;;6.56;100.00;102522.84;5005453;28;20038;-96
2023/05/25 04:32:23;;;;;;;16.30;8.87;;;;;;;6.64;100.00;102533.38;4969602;28;20118;-89
2023/05/25 04:34:49;;;;;;;18.92;8.50;;;;;;;6.67;100.00;102528.47;4955542;29;20049;-90
2023/05/25 04:37:16;;;;;;;18.60;9.10;;;;;;;6.77;100.00;102532.69;4974750;28;20035;-90
2023/05/25 04:39:41;;;;;;;19.47;9.20;;;;;;;6.95;100.00;102537.53;4992402;28;20034;-89
2023/05/25 04:42:08;;;;;;;16.15;8.88;;;;;;;7.09;100.00;102547.34;4995034;28;20153;-91
2023/05/25 04:44:33;;;;;;;18.27;9.50;;;;;;;7.12;100.00;102536.25;4989261;28;20033;-91
2023/05/25 04:47:00;;;;;;;17.37;9.30;;;;;;;7.23;100.00;102539.44;4983495;28;20034;-90
2023/05/25 04:49:25;;;;;;;19.85;9.07;;;;;;;7.32;100.00;102535.59;4981664;28;20022;-90
2023/05/25 04:51:51;;;;;;;19.57;9.53;;;;;;;7.54;100.00;102538.22;5002002;28;20033;-90
2023/05/25 04:54:17;;;;;;;21.98;8.65;;;;;;;8.22;100.00;102545.53;5008761;28;20117;-89
2023/05/25 04:56:42;;;;;;;18.60;8.10;;;;;;;9.19;100.00;102547.19;4986463;28;20030;-90
2023/05/25 04:59:08;;;;;;;16.38;8.02;;;;;;;10.13;100.00;102539.78;5006245;28;20062;-90
2023/05/25 05:01:39;;;;;;;13.97;6.83;;;;;;;10.98;100.00;102545.88;4995902;28;20045;-89
2023/05/25 05:04:05;;;;;;;15.52;7.07;;;;;;;11.69;100.00;102561.78;4980211;28;20023;-90
2023/05/25 05:06:31;;;;;;;17.92;6.43;;;;;;;12.27;100.00;102557.81;4966661;28;20154;-89
2023/05/25 05:08:57;;;;;;;14.82;6.32;;;;;;;12.86;100.00;102557.19;4974881;28;20467;-91
2023/05/25 05:11:22;;;;;;;11.27;6.32;;;;;;;13.26;97.15;102563.78;4968935;28;20027;-90
2023/05/25 05:13:48;;;;;;;15.77;5.73;;;;;;;13.37;96.56;102566.75;4959228;28;20411;-89
2023/05/25 05:16:13;;;;;;;12.40;5.67;;;;;;;13.51;92.70;102570.06;4964431;28;20035;-90
2023/05/25 05:18:38;;;;;;;11.13;5.23;;;;;;;13.71;92.87;102564.28;4954428;29;20038;-87
2023/05/25 05:21:04;;;;;;;11.63;5.03;;;;;;;13.97;89.23;102568.34;4961380;28;20045;-88
2023/05/25 05:23:29;;;;;;;11.17;5.23;;;;;;;14.16;89.18;102568.16;4992403;28;20344;-88
2023/05/25 05:25:54;;;;;;;11.43;4.63;;;;;;;14.32;87.81;102575.50;4983817;28;20081;-88
2023/05/25 05:28:20;;;;;;;10.20;5.17;;;;;;;14.59;85.96;102577.63;4982013;28;20030;-87
2023/05/25 05:30:46;;;;;;;12.57;4.70;;;;;;;14.56;84.31;102582.66;4969890;28;20090;-89
2023/05/25 05:33:12;;;;;;;14.18;5.18;;;;;;;14.66;85.21;102589.06;4972587;28;20085;-90
2023/05/25 05:35:37;;;;;;;15.00;5.18;;;;;;;14.98;83.59;102585.84;4973444;28;20442;-88
2023/05/25 05:38:03;;;;;;;10.63;4.60;;;;;;;15.07;82.28;102597.06;4970034;28;20037;-87
2023/05/25 05:40:29;;;;;;;9.27;4.78;;;;;;;15.20;81.20;102584.31;4953850;29;20031;-88
2023/05/25 05:42:54;;;;;;;13.90;4.33;;;;;;;15.03;81.74;102593.25;4953681;29;20024;-88
2023/05/25 05:45:20;;;;;;;9.37;4.60;;;;;;;14.87;82.19;102602.16;4966074;28;20054;-89
2023/05/25 05:47:45;;;;;;;10.90;4.53;;;;;;;14.65;82.95;102594.72;4970973;28;20334;-89
2023/05/25 05:50:10;;;;;;;14.85;5.20;;;;;;;14.35;85.23;102604.69;4977324;28;20109;-89
2023/05/25 05:52:36;;;;;;;10.13;4.80;;;;;;;14.13;86.52;102601.81;4965664;28;20054;-89
2023/05/25 05:55:01;;;;;;;10.00;4.93;;;;;;;13.89;89.49;102609.94;4978351;28;20034;-89
2023/05/25 05:57:27;;;;;;;11.80;4.90;;;;;;;13.66;89.79;102610.78;4982113;28;20015;-89
2023/05/25 05:59:52;;;;;;;10.77;5.00;;;;;;;13.46;92.69;102616.50;4956180;28;20478;-89
2023/05/25 06:02:18;;;;;;;12.00;5.07;;;;;;;13.25;92.97;102615.19;4955236;28;20030;-89
2023/05/25 06:04:43;;;;;;;12.20;5.20;;;;;;;13.09;95.50;102616.66;4975643;28;20289;-89
2023/05/25 06:07:09;;;;;;;12.80;5.03;;;;;;;12.90;97.34;102619.44;4977315;28;20073;-88
2023/05/25 06:09:34;;;;;;;13.47;5.57;;;;;;;12.71;97.84;102621.38;4971743;28;20034;-87
2023/05/25 06:12:00;;;;;;;11.93;5.73;;;;;;;12.64;98.84;102623.31;4961875;28;20031;-86
2023/05/25 06:14:25;;;;;;;12.52;5.50;;;;;;;12.57;99.90;102618.03;4976850;28;20034;-91
2023/05/25 06:16:51;;;;;;;12.53;5.47;;;;;;;12.47;99.55;102628.53;4969740;28;20617;-90
2023/05/25 06:19:16;;;;;;;13.03;5.33;;;;;;;12.36;100.00;102624.72;4972140;28;20457;-90
2023/05/25 06:21:41;;;;;;;13.77;5.27;;;;;;;12.33;100.00;102628.66;4972594;28;20678;-89
2023/05/25 06:24:07;;;;;;;10.70;5.00;;;;;;;12.40;100.00;102637.47;4964515;28;20023;-91
2023/05/25 06:26:32;;;;;;;15.57;5.27;;;;;;;12.46;100.00;102632.25;4970947;28;20023;-86
2023/05/25 06:28:57;;;;;;;10.93;4.80;;;;;;;12.45;100.00;102628.72;4972131;28;20166;-89
2023/05/25 06:31:23;;;;;;;11.77;4.90;;;;;;;12.45;100.00;102631.41;4972348;28;20023;-92
2023/05/25 06:33:48;;;;;;;11.63;5.23;;;;;;;12.58;100.00;102638.50;4976716;28;20324;-88
2023/05/25 06:36:14;;;;;;;9.07;4.67;;;;;;;12.70;100.00;102636.66;4992341;28;20033;-89
2023/05/25 06:38:41;;;;;;;12.33;5.23;;;;;;;12.94;100.00;102635.94;4972862;28;20035;-92
2023/05/25 06:41:08;;;;;;;10.30;4.70;;;;;;;13.10;99.42;102640.69;4965678;28;20024;-89
2023/05/25 06:43:33;;;;;;;7.82;4.63;;;;;;;13.35;96.91;102639.66;4965510;28;20094;-88
2023/05/25 06:45:58;;;;;;;10.93;4.33;;;;;;;13.46;95.56;102641.59;4960286;28;20507;-90
2023/05/25 06:48:24;;;;;;;8.70;4.87;;;;;;;13.42;93.62;102643.09;4970957;28;20033;-88
2023/05/25 06:50:49;;;;;;;8.27;4.78;;;;;;;13.45;93.81;102653.41;4972803;28;20023;-88
2023/05/25 06:53:16;;;;;;;8.73;4.70;;;;;;;13.74;94.24;102661.59;4971173;28;20158;-87
2023/05/25 06:55:41;;;;;;;9.43;5.10;;;;;;;13.98;92.14;102656.22;4972266;28;20022;-89
2023/05/25 06:58:08;;;;;;;9.60;4.97;;;;;;;14.15;91.11;102653.59;4974939;28;20077;-88
2023/05/25 07:00:33;;;;;;;10.13;5.47;;;;;;;13.98;88.71;102650.00;4972616;28;20113;-88
2023/05/25 07:02:58;;;;;;;14.10;5.60;;;;;;;13.78;91.12;102657.41;4974524;28;20034;-88
2023/05/25 07:05:24;;;;;;;10.43;5.15;;;;;;;13.69;90.89;102653.44;4981394;28;20031;-90
2023/05/25 07:07:49;;;;;;;10.93;4.90;;;;;;;13.58;89.52;102656.91;4962076;28;20073;-90
2023/05/25 07:10:17;;;;;;;10.97;4.93;;;;;;;13.30;92.86;102661.09;4972809;28;20030;-88
2023/05/25 07:12:43;;;;;;;9.32;4.90;;;;;;;13.42;92.86;102659.25;4973830;28;20115;-90
2023/05/25 07:15:09;;;;;;;10.33;4.57;;;;;;;13.59;93.51;102661.25;4950020;28;20067;-91
2023/05/25 07:17:35;;;;;;;11.30;4.63;;;;;;;13.79;90.75;102660.91;4968647;28;20030;-93
2023/05/25 07:20:01;;;;;;;14.25;4.65;;;;;;;14.00;89.15;102664.06;4978072;28;20053;-92
2023/05/25 07:22:26;;;;;;;12.20;5.37;;;;;;;14.05;88.11;102659.63;4971306;28;20053;-92
2023/05/25 07:24:51;;;;;;;9.60;4.80;;;;;;;14.00;87.40;102664.06;4959868;28;20039;-91
2023/05/25 07:27:18;;;;;;;10.60;5.10;;;;;;;14.13;87.90;102674.59;4969503;28;20066;-93
2023/05/25 07:29:43;;;;;;;12.30;5.07;;;;;;;14.09;85.92;102662.66;4971284;28;20106;-92
2023/05/25 07:32:09;;;;;;;11.07;5.27;;;;;;;13.89;87.82;102669.22;4986949;28;20094;-89
2023/05/25 07:34:34;;;;;;;9.57;4.43;;;;;;;13.86;87.54;102668.88;4965920;28;20040;-89
2023/05/25 07:36:59;;;;;;;13.75;4.85;;;;;;;13.93;89.23;102665.00;4969389;28;20090;-89
2023/05/25 07:39:25;;;;;;;13.77;4.60;;;;;;;14.05;89.55;102670.41;4949427;28;20028;-89
2023/05/25 07:41:50;;;;;;;10.87;4.77;;;;;;;14.29;88.01;102678.44;4944208;28;20042;-89
2023/05/25 07:44:16;;;;;;;11.70;4.85;;;;;;;14.33;84.98;102674.22;4969739;28;20041;-89
2023/05/25 07:46:42;;;;;;;10.60;5.27;;;;;;;14.39;85.56;102665.19;4971427;28;20035;-88
2023/05/25 07:49:11;;;;;;;16.05;4.93;;;;;;;14.51;84.32;102670.53;4967022;28;20435;-88
2023/05/25 07:51:37;;;;;;;8.13;3.93;;;;;;;14.71;83.63;102676.59;4973402;28;20034;-86
2023/05/25 07:54:02;;;;;;;12.93;4.07;;;;;;;14.80;80.72;102661.63;4966740;28;20298;-88
2023/05/25 07:56:28;;;;;;;12.30;4.67;;;;;;;14.97;81.05;102680.59;4956030;29;20086;-87
2023/05/25 07:58:53;;;;;;;10.00;4.10;;;;;;;15.34;79.94;102674.75;4965341;28;20035;-92
2023/05/25 08:01:19;;;;;;;8.40;4.68;;;;;;;15.63;77.09;102684.66;4966552;28;20039;-90
2023/05/25 08:03:44;;;;;;;12.63;4.30;;;;;;;15.96;76.10;102675.72;4959657;28;20038;-89
2023/05/25 08:06:10;;;;;;;9.40;3.87;;;;;;;16.34;73.61;102676.72;4965711;28;20066;-91
2023/05/25 08:08:36;;;;;;;10.85;4.07;;;;;;;16.55;73.54;102682.38;4957673;28;20135;-91
2023/05/25 08:11:01;;;;;;;11.20;4.20;;;;;;;16.58;70.31;102683.78;4965382;28;20046;-92
2023/05/25 08:13:26;;;;;;;11.53;3.97;;;;;;;16.55;71.98;102673.44;4976044;28;20076;-90
2023/05/25 08:15:52;;;;;;;9.00;4.37;;;;;;;16.38;68.93;102685.16;4971162;28;20061;-92
2023/05/25 08:18:18;;;;;;;9.57;3.90;;;;;;;16.05;71.05;102686.91;4978268;28;20027;-92
2023/05/25 08:20:43;;;;;;;13.75;4.10;;;;;;;15.75;72.59;102685.34;4964161;28;20032;-91
2023/05/25 08:23:09;;;;;;;13.07;4.33;;;;;;;15.56;73.65;102685.63;4948133;28;20030;-89
2023/05/25 08:25:34;;;;;;;9.43;4.10;;;;;;;15.65;73.35;102688.72;4977223;28;20304;-91
2023/05/25 08:28:01;;;;;;;12.57;4.13;;;;;;;15.71;72.93;102698.56;4978831;28;20549;-92
2023/05/25 08:30:26;;;;;;;11.75;4.15;;;;;;;15.70;71.35;102696.91;4974505;28;20356;-90
2023/05/25 08:32:52;;;;;;;10.50;3.63;;;;;;;15.63;73.02;102695.44;4996254;28;20491;-91
2023/05/25 08:35:17;;;;;;;10.73;3.55;;;;;;;15.80;73.02;102685.44;4975219;28;20019;-91
2023/05/25 08:37:43;;;;;;;17.67;4.40;;;;;;;16.16;70.88;102693.25;4972663;29;20027;-91
2023/05/25 08:40:15;;;;;;;9.80;3.60;;;;;;;16.69;69.55;102692.81;4976517;29;20039;-90
2023/05/25 08:42:45;;;;;;;7.97;3.22;;;;;;;17.33;68.18;102711.09;4972858;28;20038;-90
2023/05/25 08:45:11;;;;;;;10.75;3.60;;;;;;;17.88;65.29;102693.84;4958848;29;20031;-90
2023/05/25 08:47:41;;;;;;;12.52;3.88;;;;;;;18.27;65.71;102697.06;4970437;28;20458;-90
2023/05/25 08:50:11;;;;;;;7.10;3.53;;;;;;;18.43;62.49;102699.84;4995902;28;20036;-90
2023/05/25 08:52:44;;;;;;;10.25;3.47;;;;;;;18.15;61.34;102699.19;4985708;28;20031;-91
2023/05/25 08:55:11;;;;;;;12.90;3.60;;;;;;;17.64;61.89;102713.19;4956397;29;20031;-91
2023/05/25 08:57:50;;;;;;;9.47;3.47;;;;;;;17.28;62.38;102713.75;4939782;29;20279;-91
2023/05/25 09:00:19;;;;;;;8.75;3.08;;;;;;;17.19;63.28;102709.84;4955173;28;20086;-90
2023/05/25 09:02:53;;;;;;;8.43;3.35;;;;;;;17.20;62.86;102708.78;4963233;28;20559;-90
2023/05/25 09:05:19;;;;;;;9.82;4.18;;;;;;;17.32;62.02;102717.56;4986581;28;20486;-90
2023/05/25 09:07:45;;;;;;;11.93;3.08;;;;;;;17.41;60.84;102724.16;4994630;28;20032;-90
2023/05/25 09:10:11;;;;;;;11.40;3.40;;;;;;;17.62;63.23;102712.66;4994299;28;20022;-91
2023/05/25 09:12:37;;;;;;;9.27;3.35;;;;;;;17.82;59.87;102707.38;4985429;28;20023;-91
2023/05/25 09:15:03;;;;;;;12.52;3.72;;;;;;;17.58;60.13;102706.94;4938373;28;20054;-91
2023/05/25 09:17:29;;;;;;;7.43;3.30;;;;;;;17.49;61.39;102714.72;4938653;29;20483;-91
2023/05/25 09:19:55;;;;;;;9.37;3.33;;;;;;;17.44;62.39;102720.09;4959271;28;20058;-91
2023/05/25 09:22:20;;;;;;;15.65;3.90;;;;;;;17.40;62.25;102719.81;4956151;28;20031;-92
2023/05/25 09:24:46;;;;;;;10.27;3.77;;;;;;;17.24;62.99;102718.88;4958135;28;20055;-91
2023/05/25 09:27:16;;;;;;;12.95;3.35;;;;;;;17.46;63.57;102714.44;4974726;28;20035;-91
2023/05/25 09:29:41;;;;;;;12.40;3.70;;;;;;;17.30;60.06;102716.19;4974343;28;20482;-90
2023/05/25 09:32:07;;;;;;;8.67;3.23;;;;;;;17.42;61.60;102714.13;4974919;28;20373;-91
2023/05/25 09:34:35;;;;;;;9.47;3.43;;;;;;;17.55;60.27;102715.56;4962355;28;20101;-92
2023/05/25 09:37:10;;;;;;;11.25;3.28;;;;;;;17.54;59.63;102730.19;4975987;28;20030;-92
2023/05/25 09:39:35;;;;;;;8.65;2.88;;;;;;;17.54;59.43;102727.50;4982998;28;20122;-92
2023/05/25 09:42:01;;;;;;;8.60;2.83;;;;;;;17.64;57.48;102724.88;4994170;28;20054;-91
2023/05/25 09:44:27;;;;;;;7.33;2.73;;;;;;;17.96;60.00;102720.50;4974371;28;20035;-92
2023/05/25 09:46:52;;;;;;;7.35;2.70;;;;;;;18.20;56.60;102714.66;4974867;28;20042;-91
2023/05/25 09:49:18;;;;;;;15.30;3.60;;;;;;;18.19;57.14;102705.72;4974671;28;20073;-92
2023/05/25 09:51:44;;;;;;;9.13;3.22;;;;;;;17.96;57.46;102724.00;4974446;28;20034;-92
2023/05/25 09:54:10;;;;;;;9.93;3.10;;;;;;;17.54;57.22;102716.66;4986137;28;20058;-91
2023/05/25 09:56:36;;;;;;;8.23;2.83;;;;;;;17.39;57.91;102728.19;4954676;29;20028;-92
2023/05/25 09:59:02;;;;;;;12.10;3.00;;;;;;;17.34;57.14;102718.16;4957041;29;20082;-92
2023/05/25 10:01:27;;;;;;;9.88;2.72;;;;;;;17.38;56.77;102731.97;4957685;29;20386;-91
2023/05/25 10:03:58;;;;;;;9.37;2.80;;;;;;;17.56;56.98;102730.75;4959513;28;20023;-92
2023/05/25 10:06:24;;;;;;;6.82;2.95;;;;;;;17.97;56.17;102722.13;4958284;28;20494;-92
2023/05/25 10:08:51;;;;;;;9.60;3.10;;;;;;;18.13;54.46;102723.88;4963113;28;20038;-92
2023/05/25 10:11:20;;;;;;;8.35;2.88;;;;;;;18.25;54.81;102720.13;4956032;28;20035;-92
2023/05/25 10:13:46;;;;;;;9.38;2.88;;;;;;;18.36;54.29;102729.13;4939596;28;20031;-91
2023/05/25 10:16:16;;;;;;;12.73;3.05;;;;;;;18.39;53.84;102731.31;4959466;29;20463;-92
2023/05/25 10:18:47;;;;;;;9.17;2.70;;;;;;;18.67;53.58;102726.53;4957075;29;20027;-92
2023/05/25 10:21:15;;;;;;;12.63;3.27;;;;;;;18.76;52.40;102723.03;4957378;29;20762;-91
2023/05/25 10:23:46;;;;;;;8.07;2.80;;;;;;;19.05;53.96;102724.47;4980037;28;20118;-91
2023/05/25 10:26:18;;;;;;;8.07;3.03;;;;;;;19.12;52.25;102727.75;4978999;28;20019;-90
2023/05/25 10:28:46;;;;;;;9.13;3.05;;;;;;;18.96;52.99;102734.25;4972158;28;20106;-91
2023/05/25 10:31:13;;;;;;;8.00;2.92;;;;;;;18.88;54.31;102735.56;4973116;28;20106;-93
2023/05/25 10:33:39;;;;;;;12.13;3.25;;;;;;;18.64;54.84;102735.19;4973699;28;20123;-92
2023/05/25 10:36:05;;;;;;;10.00;3.15;;;;;;;18.57;53.80;102732.72;4963224;28;20047;-93
2023/05/25 10:38:33;;;;;;;10.13;3.17;;;;;;;18.72;53.37;102745.56;4955230;29;20492;-91
2023/05/25 10:40:59;;;;;;;7.67;2.63;;;;;;;18.88;51.30;102739.06;4988257;28;20306;-89
2023/05/25 10:43:25;;;;;;;5.90;2.20;;;;;;;19.06;51.57;102737.81;4970981;28;20089;-92
2023/05/25 10:45:52;;;;;;;8.95;2.67;;;;;;;19.28;50.10;102738.63;4972442;28;20031;-93
2023/05/25 10:48:17;;;;;;;7.40;2.42;;;;;;;19.41;49.90;102732.66;4973144;28;20030;-93
2023/05/25 10:50:49;;;;;;;7.97;2.50;;;;;;;19.44;51.01;102732.09;4971562;28;20035;-92
2023/05/25 10:53:15;;;;;;;9.50;2.90;;;;;;;19.72;50.45;102731.81;4992300;28;20278;-91
2023/05/25 10:55:42;;;;;;;7.55;3.00;;;;;;;19.60;49.36;102735.66;4979776;28;20039;-88
2023/05/25 10:58:11;;;;;;;9.63;3.42;;;;;;;19.22;50.79;102735.91;4954958;28;20031;-89
2023/05/25 11:00:37;;;;;;;10.23;3.30;;;;;;;19.24;49.35;102737.53;4952732;28;20483;-89
2023/05/25 11:03:03;;;;;;;8.68;2.90;;;;;;;19.35;50.27;102737.28;4955950;28;20031;-89
2023/05/25 11:05:31;;;;;;;7.93;2.90;;;;;;;19.54;51.57;102738.66;4959753;28;20123;-90
2023/05/25 11:07:57;;;;;;;8.80;3.20;;;;;;;19.32;50.59;102734.28;4975294;28;20106;-89
2023/05/25 11:10:47;;;;;;;8.35;3.20;;;;;;;19.86;51.30;102732.09;4955864;28;20046;-89
2023/05/25 11:13:34;;;;;;;7.05;2.90;;;;;;;20.45;49.61;102727.03;4962079;28;20141;-91
2023/05/25 11:16:29;;;;;;;8.48;2.70;;;;;;;20.82;47.44;102725.75;4991347;28;20121;-90
2023/05/25 11:18:58;;;;;;;11.35;3.63;;;;;;;20.78;46.92;102724.72;4962951;28;20046;-92